sensor_id;sensor_type;location;lat;lon;timestamp;P1;durP1;ratioP1;P2;durP2;ratioP2
15110;SDS011;7656;51.954;7.998;2024-03-22T00:04:02;20.10;;;12.80;;
15110;SDS011;7656;51.954;7.998;2024-03-22T00:08:23;23.80;;;14.57;;
15110;SDS011;7656;51.954;7.998;2024-03-22T00:12:45;23.30;;;14.10;;
15110;SDS011;7656;51.954;7.998;2024-03-22T00:17:07;22.10;;;13.97;;
15110;SDS011;7656;51.954;7.998;2024-03-22T00:21:28;26.47;;;14.83;;
15110;SDS011;7656;51.954;7.998;2024-03-22T00:25:50;23.93;;;13.87;;
15110;SDS011;7656;51.954;7.998;2024-03-22T00:30:12;22.43;;;13.43;;
15110;SDS011;7656;51.954;7.998;2024-03-22T00:34:34;23.20;;;14.93;;
15110;SDS011;7656;51.954;7.998;2024-03-22T00:38:56;25.63;;;14.13;;
15110;SDS011;7656;51.954;7.998;2024-03-22T00:43:18;28.37;;;15.63;;
15110;SDS011;7656;51.954;7.998;2024-03-22T00:47:40;29.20;;;15.70;;
15110;SDS011;7656;51.954;7.998;2024-03-22T00:52:02;27.13;;;15.27;;
15110;SDS011;7656;51.954;7.998;2024-03-22T00:56:23;24.80;;;15.87;;
15110;SDS011;7656;51.954;7.998;2024-03-22T01:00:45;27.00;;;15.60;;
15110;SDS011;7656;51.954;7.998;2024-03-22T01:05:07;24.23;;;14.33;;
15110;SDS011;7656;51.954;7.998;2024-03-22T01:09:29;29.67;;;16.17;;
15110;SDS011;7656;51.954;7.998;2024-03-22T01:13:51;31.93;;;15.37;;
15110;SDS011;7656;51.954;7.998;2024-03-22T01:18:12;27.87;;;16.40;;
15110;SDS011;7656;51.954;7.998;2024-03-22T01:22:34;27.37;;;15.33;;
15110;SDS011;7656;51.954;7.998;2024-03-22T01:26:55;31.13;;;16.50;;
15110;SDS011;7656;51.954;7.998;2024-03-22T01:31:17;28.10;;;16.60;;
15110;SDS011;7656;51.954;7.998;2024-03-22T01:35:38;26.77;;;15.53;;
15110;SDS011;7656;51.954;7.998;2024-03-22T01:40:00;30.50;;;16.40;;
15110;SDS011;7656;51.954;7.998;2024-03-22T01:44:28;25.93;;;14.33;;
15110;SDS011;7656;51.954;7.998;2024-03-22T01:48:49;25.13;;;14.67;;
15110;SDS011;7656;51.954;7.998;2024-03-22T01:53:11;23.47;;;14.63;;
15110;SDS011;7656;51.954;7.998;2024-03-22T01:57:33;25.73;;;13.67;;
15110;SDS011;7656;51.954;7.998;2024-03-22T02:01:55;27.23;;;14.10;;
15110;SDS011;7656;51.954;7.998;2024-03-22T02:06:16;26.73;;;14.13;;
15110;SDS011;7656;51.954;7.998;2024-03-22T02:10:38;24.93;;;14.10;;
15110;SDS011;7656;51.954;7.998;2024-03-22T02:15:01;26.07;;;14.07;;
15110;SDS011;7656;51.954;7.998;2024-03-22T02:19:23;25.93;;;14.13;;
15110;SDS011;7656;51.954;7.998;2024-03-22T02:23:44;27.40;;;14.33;;
15110;SDS011;7656;51.954;7.998;2024-03-22T02:28:06;24.47;;;13.83;;
15110;SDS011;7656;51.954;7.998;2024-03-22T02:32:27;24.20;;;13.50;;
15110;SDS011;7656;51.954;7.998;2024-03-22T02:36:49;26.07;;;14.20;;
15110;SDS011;7656;51.954;7.998;2024-03-22T02:41:10;26.17;;;14.07;;
15110;SDS011;7656;51.954;7.998;2024-03-22T02:45:32;23.27;;;13.83;;
15110;SDS011;7656;51.954;7.998;2024-03-22T02:49:53;24.60;;;13.40;;
15110;SDS011;7656;51.954;7.998;2024-03-22T02:54:15;23.30;;;13.60;;
15110;SDS011;7656;51.954;7.998;2024-03-22T02:58:36;24.33;;;13.30;;
15110;SDS011;7656;51.954;7.998;2024-03-22T03:02:58;27.57;;;14.20;;
15110;SDS011;7656;51.954;7.998;2024-03-22T03:07:20;23.30;;;13.37;;
15110;SDS011;7656;51.954;7.998;2024-03-22T03:11:41;24.87;;;13.43;;
15110;SDS011;7656;51.954;7.998;2024-03-22T03:16:03;25.47;;;13.07;;
15110;SDS011;7656;51.954;7.998;2024-03-22T03:20:24;25.33;;;13.53;;
15110;SDS011;7656;51.954;7.998;2024-03-22T03:24:47;28.77;;;14.67;;
15110;SDS011;7656;51.954;7.998;2024-03-22T03:29:08;24.67;;;13.17;;
15110;SDS011;7656;51.954;7.998;2024-03-22T03:33:30;26.00;;;12.93;;
15110;SDS011;7656;51.954;7.998;2024-03-22T03:37:51;24.90;;;12.77;;
15110;SDS011;7656;51.954;7.998;2024-03-22T03:42:13;26.60;;;12.23;;
15110;SDS011;7656;51.954;7.998;2024-03-22T03:46:35;26.57;;;13.33;;
15110;SDS011;7656;51.954;7.998;2024-03-22T03:50:56;25.00;;;13.17;;
15110;SDS011;7656;51.954;7.998;2024-03-22T03:55:23;24.70;;;12.67;;
15110;SDS011;7656;51.954;7.998;2024-03-22T03:59:44;29.97;;;12.97;;
15110;SDS011;7656;51.954;7.998;2024-03-22T04:04:06;24.07;;;12.67;;
15110;SDS011;7656;51.954;7.998;2024-03-22T04:08:28;23.33;;;12.57;;
15110;SDS011;7656;51.954;7.998;2024-03-22T04:12:53;25.10;;;12.33;;
15110;SDS011;7656;51.954;7.998;2024-03-22T04:17:15;24.40;;;12.77;;
15110;SDS011;7656;51.954;7.998;2024-03-22T04:21:36;24.20;;;13.13;;
15110;SDS011;7656;51.954;7.998;2024-03-22T04:25:58;24.03;;;13.10;;
15110;SDS011;7656;51.954;7.998;2024-03-22T04:30:20;22.63;;;12.90;;
15110;SDS011;7656;51.954;7.998;2024-03-22T04:34:42;22.87;;;12.17;;
15110;SDS011;7656;51.954;7.998;2024-03-22T04:39:04;26.13;;;13.37;;
15110;SDS011;7656;51.954;7.998;2024-03-22T04:43:25;26.00;;;13.13;;
15110;SDS011;7656;51.954;7.998;2024-03-22T04:47:47;21.83;;;12.50;;
15110;SDS011;7656;51.954;7.998;2024-03-22T04:52:08;24.47;;;13.20;;
15110;SDS011;7656;51.954;7.998;2024-03-22T04:56:30;20.27;;;12.33;;
15110;SDS011;7656;51.954;7.998;2024-03-22T05:00:56;23.30;;;12.40;;
15110;SDS011;7656;51.954;7.998;2024-03-22T05:05:18;23.87;;;12.80;;
15110;SDS011;7656;51.954;7.998;2024-03-22T05:09:39;25.37;;;13.20;;
15110;SDS011;7656;51.954;7.998;2024-03-22T05:14:01;23.37;;;12.67;;
15110;SDS011;7656;51.954;7.998;2024-03-22T05:18:23;22.50;;;12.13;;
15110;SDS011;7656;51.954;7.998;2024-03-22T05:22:44;21.07;;;10.77;;
15110;SDS011;7656;51.954;7.998;2024-03-22T05:27:07;22.27;;;11.57;;
15110;SDS011;7656;51.954;7.998;2024-03-22T05:31:28;20.83;;;11.33;;
15110;SDS011;7656;51.954;7.998;2024-03-22T05:35:50;26.43;;;13.80;;
15110;SDS011;7656;51.954;7.998;2024-03-22T05:40:12;22.53;;;12.37;;
15110;SDS011;7656;51.954;7.998;2024-03-22T05:44:33;24.90;;;12.47;;
15110;SDS011;7656;51.954;7.998;2024-03-22T05:48:55;21.43;;;11.83;;
15110;SDS011;7656;51.954;7.998;2024-03-22T05:53:18;24.27;;;12.20;;
15110;SDS011;7656;51.954;7.998;2024-03-22T05:57:39;21.90;;;11.90;;
15110;SDS011;7656;51.954;7.998;2024-03-22T06:02:01;21.63;;;11.70;;
15110;SDS011;7656;51.954;7.998;2024-03-22T06:06:22;21.57;;;12.97;;
15110;SDS011;7656;51.954;7.998;2024-03-22T06:10:46;21.77;;;11.90;;
15110;SDS011;7656;51.954;7.998;2024-03-22T06:15:08;23.30;;;12.47;;
15110;SDS011;7656;51.954;7.998;2024-03-22T06:19:30;24.60;;;12.53;;
15110;SDS011;7656;51.954;7.998;2024-03-22T06:23:51;17.27;;;11.03;;
15110;SDS011;7656;51.954;7.998;2024-03-22T06:28:13;22.53;;;12.23;;
15110;SDS011;7656;51.954;7.998;2024-03-22T06:32:35;22.40;;;12.37;;
15110;SDS011;7656;51.954;7.998;2024-03-22T06:36:56;22.97;;;11.80;;
15110;SDS011;7656;51.954;7.998;2024-03-22T06:41:18;20.40;;;11.80;;
15110;SDS011;7656;51.954;7.998;2024-03-22T06:45:39;18.40;;;11.43;;
15110;SDS011;7656;51.954;7.998;2024-03-22T06:50:00;20.03;;;11.23;;
15110;SDS011;7656;51.954;7.998;2024-03-22T06:54:22;20.60;;;10.83;;
15110;SDS011;7656;51.954;7.998;2024-03-22T06:58:44;20.87;;;11.70;;
15110;SDS011;7656;51.954;7.998;2024-03-22T07:03:05;19.70;;;11.23;;
15110;SDS011;7656;51.954;7.998;2024-03-22T07:07:27;20.03;;;11.30;;
15110;SDS011;7656;51.954;7.998;2024-03-22T07:11:48;17.40;;;10.70;;
15110;SDS011;7656;51.954;7.998;2024-03-22T07:16:11;19.00;;;11.73;;
15110;SDS011;7656;51.954;7.998;2024-03-22T07:20:32;20.77;;;11.53;;
15110;SDS011;7656;51.954;7.998;2024-03-22T07:24:54;20.90;;;10.60;;
15110;SDS011;7656;51.954;7.998;2024-03-22T07:29:16;17.67;;;10.40;;
15110;SDS011;7656;51.954;7.998;2024-03-22T07:33:37;18.13;;;10.57;;
15110;SDS011;7656;51.954;7.998;2024-03-22T07:37:59;19.63;;;10.43;;
15110;SDS011;7656;51.954;7.998;2024-03-22T07:42:21;17.83;;;11.00;;
15110;SDS011;7656;51.954;7.998;2024-03-22T07:46:46;17.37;;;10.40;;
15110;SDS011;7656;51.954;7.998;2024-03-22T07:51:07;20.90;;;10.97;;
15110;SDS011;7656;51.954;7.998;2024-03-22T07:55:29;19.40;;;11.47;;
15110;SDS011;7656;51.954;7.998;2024-03-22T07:59:50;16.30;;;11.17;;
15110;SDS011;7656;51.954;7.998;2024-03-22T08:04:12;17.43;;;11.00;;
15110;SDS011;7656;51.954;7.998;2024-03-22T08:08:33;17.63;;;11.17;;
15110;SDS011;7656;51.954;7.998;2024-03-22T08:12:55;15.33;;;10.30;;
15110;SDS011;7656;51.954;7.998;2024-03-22T08:17:16;19.23;;;11.47;;
15110;SDS011;7656;51.954;7.998;2024-03-22T08:21:38;19.10;;;10.63;;
15110;SDS011;7656;51.954;7.998;2024-03-22T08:26:00;15.93;;;10.33;;
15110;SDS011;7656;51.954;7.998;2024-03-22T08:30:22;19.03;;;10.10;;
15110;SDS011;7656;51.954;7.998;2024-03-22T08:34:43;17.20;;;10.90;;
15110;SDS011;7656;51.954;7.998;2024-03-22T08:39:05;20.57;;;11.13;;
15110;SDS011;7656;51.954;7.998;2024-03-22T08:43:30;14.10;;;9.90;;
15110;SDS011;7656;51.954;7.998;2024-03-22T08:47:51;17.50;;;11.10;;
15110;SDS011;7656;51.954;7.998;2024-03-22T08:52:13;14.70;;;9.83;;
15110;SDS011;7656;51.954;7.998;2024-03-22T08:56:35;21.20;;;10.37;;
15110;SDS011;7656;51.954;7.998;2024-03-22T09:00:57;17.30;;;10.27;;
15110;SDS011;7656;51.954;7.998;2024-03-22T09:05:19;17.03;;;10.63;;
15110;SDS011;7656;51.954;7.998;2024-03-22T09:09:40;20.60;;;10.43;;
15110;SDS011;7656;51.954;7.998;2024-03-22T09:14:02;17.17;;;9.97;;
15110;SDS011;7656;51.954;7.998;2024-03-22T09:18:23;20.33;;;10.77;;
15110;SDS011;7656;51.954;7.998;2024-03-22T09:22:45;15.33;;;9.97;;
15110;SDS011;7656;51.954;7.998;2024-03-22T09:27:07;13.97;;;9.23;;
15110;SDS011;7656;51.954;7.998;2024-03-22T09:31:30;16.00;;;9.27;;
15110;SDS011;7656;51.954;7.998;2024-03-22T09:35:53;15.93;;;8.90;;
15110;SDS011;7656;51.954;7.998;2024-03-22T09:40:15;19.67;;;9.50;;
15110;SDS011;7656;51.954;7.998;2024-03-22T09:44:37;14.30;;;8.97;;
15110;SDS011;7656;51.954;7.998;2024-03-22T09:49:00;12.83;;;8.80;;
15110;SDS011;7656;51.954;7.998;2024-03-22T09:53:22;12.27;;;8.10;;
15110;SDS011;7656;51.954;7.998;2024-03-22T09:57:43;14.33;;;8.97;;
15110;SDS011;7656;51.954;7.998;2024-03-22T10:02:06;12.53;;;8.53;;
15110;SDS011;7656;51.954;7.998;2024-03-22T10:06:31;13.80;;;9.27;;
15110;SDS011;7656;51.954;7.998;2024-03-22T10:10:52;14.53;;;8.30;;
15110;SDS011;7656;51.954;7.998;2024-03-22T10:15:14;17.23;;;8.63;;
15110;SDS011;7656;51.954;7.998;2024-03-22T10:19:37;14.13;;;7.93;;
15110;SDS011;7656;51.954;7.998;2024-03-22T10:24:01;12.90;;;7.67;;
15110;SDS011;7656;51.954;7.998;2024-03-22T10:28:22;13.10;;;7.80;;
15110;SDS011;7656;51.954;7.998;2024-03-22T10:32:45;11.07;;;7.63;;
15110;SDS011;7656;51.954;7.998;2024-03-22T10:37:06;13.57;;;7.70;;
15110;SDS011;7656;51.954;7.998;2024-03-22T10:41:31;13.47;;;7.57;;
15110;SDS011;7656;51.954;7.998;2024-03-22T10:45:52;15.43;;;8.67;;
15110;SDS011;7656;51.954;7.998;2024-03-22T10:50:16;12.87;;;8.77;;
15110;SDS011;7656;51.954;7.998;2024-03-22T10:54:40;14.20;;;9.83;;
15110;SDS011;7656;51.954;7.998;2024-03-22T10:59:05;14.63;;;9.10;;
15110;SDS011;7656;51.954;7.998;2024-03-22T11:03:27;13.90;;;8.43;;
15110;SDS011;7656;51.954;7.998;2024-03-22T11:07:58;14.03;;;8.83;;
15110;SDS011;7656;51.954;7.998;2024-03-22T11:12:21;12.53;;;8.47;;
15110;SDS011;7656;51.954;7.998;2024-03-22T11:16:45;10.70;;;8.37;;
15110;SDS011;7656;51.954;7.998;2024-03-22T11:21:07;13.13;;;8.53;;
15110;SDS011;7656;51.954;7.998;2024-03-22T11:25:31;15.00;;;9.03;;
15110;SDS011;7656;51.954;7.998;2024-03-22T11:29:52;11.80;;;8.33;;
15110;SDS011;7656;51.954;7.998;2024-03-22T11:34:15;15.43;;;9.13;;
15110;SDS011;7656;51.954;7.998;2024-03-22T11:38:36;13.50;;;8.97;;
15110;SDS011;7656;51.954;7.998;2024-03-22T11:42:58;15.47;;;9.93;;
15110;SDS011;7656;51.954;7.998;2024-03-22T11:47:20;14.20;;;9.50;;
15110;SDS011;7656;51.954;7.998;2024-03-22T11:51:41;14.07;;;9.43;;
15110;SDS011;7656;51.954;7.998;2024-03-22T11:56:04;16.90;;;9.93;;
15110;SDS011;7656;51.954;7.998;2024-03-22T12:00:25;14.23;;;9.77;;
15110;SDS011;7656;51.954;7.998;2024-03-22T12:04:48;13.43;;;9.67;;
15110;SDS011;7656;51.954;7.998;2024-03-22T12:09:10;13.70;;;9.80;;
15110;SDS011;7656;51.954;7.998;2024-03-22T12:13:34;15.43;;;10.10;;
15110;SDS011;7656;51.954;7.998;2024-03-22T12:17:55;17.43;;;10.03;;
15110;SDS011;7656;51.954;7.998;2024-03-22T12:22:17;17.10;;;9.63;;
15110;SDS011;7656;51.954;7.998;2024-03-22T12:26:39;13.83;;;9.77;;
15110;SDS011;7656;51.954;7.998;2024-03-22T12:31:00;14.93;;;9.80;;
15110;SDS011;7656;51.954;7.998;2024-03-22T12:35:22;17.37;;;10.27;;
15110;SDS011;7656;51.954;7.998;2024-03-22T12:39:45;15.33;;;10.73;;
15110;SDS011;7656;51.954;7.998;2024-03-22T12:44:07;16.93;;;10.93;;
15110;SDS011;7656;51.954;7.998;2024-03-22T12:48:29;17.03;;;11.27;;
15110;SDS011;7656;51.954;7.998;2024-03-22T12:52:51;20.30;;;11.50;;
15110;SDS011;7656;51.954;7.998;2024-03-22T12:57:12;17.07;;;11.30;;
15110;SDS011;7656;51.954;7.998;2024-03-22T13:01:34;18.93;;;12.37;;
15110;SDS011;7656;51.954;7.998;2024-03-22T13:05:57;20.43;;;11.13;;
15110;SDS011;7656;51.954;7.998;2024-03-22T13:10:19;17.20;;;11.73;;
15110;SDS011;7656;51.954;7.998;2024-03-22T13:14:41;18.30;;;11.60;;
15110;SDS011;7656;51.954;7.998;2024-03-22T13:19:03;19.10;;;11.50;;
15110;SDS011;7656;51.954;7.998;2024-03-22T13:23:25;17.43;;;11.07;;
15110;SDS011;7656;51.954;7.998;2024-03-22T13:27:47;16.83;;;10.27;;
15110;SDS011;7656;51.954;7.998;2024-03-22T13:32:09;16.90;;;10.40;;
15110;SDS011;7656;51.954;7.998;2024-03-22T13:36:30;17.10;;;11.10;;
15110;SDS011;7656;51.954;7.998;2024-03-22T13:40:57;16.93;;;10.83;;
15110;SDS011;7656;51.954;7.998;2024-03-22T13:45:19;14.93;;;9.97;;
15110;SDS011;7656;51.954;7.998;2024-03-22T13:49:40;13.83;;;9.77;;
15110;SDS011;7656;51.954;7.998;2024-03-22T13:54:03;15.77;;;10.17;;
15110;SDS011;7656;51.954;7.998;2024-03-22T13:58:24;20.30;;;10.27;;
15110;SDS011;7656;51.954;7.998;2024-03-22T14:02:47;15.43;;;9.70;;
15110;SDS011;7656;51.954;7.998;2024-03-22T14:07:12;13.90;;;9.37;;
15110;SDS011;7656;51.954;7.998;2024-03-22T14:11:35;18.90;;;8.83;;
15110;SDS011;7656;51.954;7.998;2024-03-22T14:15:57;12.63;;;9.23;;
15110;SDS011;7656;51.954;7.998;2024-03-22T14:20:18;14.57;;;9.33;;
15110;SDS011;7656;51.954;7.998;2024-03-22T14:24:40;18.67;;;9.97;;
15110;SDS011;7656;51.954;7.998;2024-03-22T14:29:01;14.93;;;10.00;;
15110;SDS011;7656;51.954;7.998;2024-03-22T14:33:23;15.27;;;10.07;;
15110;SDS011;7656;51.954;7.998;2024-03-22T14:37:44;14.80;;;9.27;;
15110;SDS011;7656;51.954;7.998;2024-03-22T14:42:06;15.00;;;8.93;;
15110;SDS011;7656;51.954;7.998;2024-03-22T14:46:28;17.17;;;9.23;;
15110;SDS011;7656;51.954;7.998;2024-03-22T14:50:49;17.47;;;10.20;;
15110;SDS011;7656;51.954;7.998;2024-03-22T14:55:11;14.10;;;9.23;;
15110;SDS011;7656;51.954;7.998;2024-03-22T14:59:33;13.80;;;9.30;;
15110;SDS011;7656;51.954;7.998;2024-03-22T15:03:54;14.93;;;9.17;;
15110;SDS011;7656;51.954;7.998;2024-03-22T15:08:16;13.57;;;9.33;;
15110;SDS011;7656;51.954;7.998;2024-03-22T15:12:37;12.87;;;8.73;;
15110;SDS011;7656;51.954;7.998;2024-03-22T15:16:59;13.90;;;8.80;;
15110;SDS011;7656;51.954;7.998;2024-03-22T15:21:21;13.93;;;9.23;;
15110;SDS011;7656;51.954;7.998;2024-03-22T15:25:42;15.37;;;9.47;;
15110;SDS011;7656;51.954;7.998;2024-03-22T15:30:04;15.10;;;10.00;;
15110;SDS011;7656;51.954;7.998;2024-03-22T15:34:26;14.20;;;9.40;;
15110;SDS011;7656;51.954;7.998;2024-03-22T15:38:48;15.47;;;10.50;;
15110;SDS011;7656;51.954;7.998;2024-03-22T15:43:09;13.10;;;9.37;;
15110;SDS011;7656;51.954;7.998;2024-03-22T15:47:31;13.80;;;9.37;;
15110;SDS011;7656;51.954;7.998;2024-03-22T15:51:53;17.00;;;9.83;;
15110;SDS011;7656;51.954;7.998;2024-03-22T15:56:15;14.30;;;9.47;;
15110;SDS011;7656;51.954;7.998;2024-03-22T16:00:36;15.23;;;9.23;;
15110;SDS011;7656;51.954;7.998;2024-03-22T16:04:58;16.53;;;9.70;;
15110;SDS011;7656;51.954;7.998;2024-03-22T16:09:19;12.97;;;9.37;;
15110;SDS011;7656;51.954;7.998;2024-03-22T16:13:41;14.23;;;9.07;;
15110;SDS011;7656;51.954;7.998;2024-03-22T16:18:02;10.73;;;7.80;;
15110;SDS011;7656;51.954;7.998;2024-03-22T16:22:24;11.70;;;7.10;;
15110;SDS011;7656;51.954;7.998;2024-03-22T16:26:46;8.73;;;6.70;;
15110;SDS011;7656;51.954;7.998;2024-03-22T16:31:08;9.37;;;6.87;;
15110;SDS011;7656;51.954;7.998;2024-03-22T16:35:30;9.80;;;6.73;;
15110;SDS011;7656;51.954;7.998;2024-03-22T16:39:51;9.70;;;6.77;;
15110;SDS011;7656;51.954;7.998;2024-03-22T16:44:13;10.03;;;6.80;;
15110;SDS011;7656;51.954;7.998;2024-03-22T16:48:36;8.70;;;6.50;;
15110;SDS011;7656;51.954;7.998;2024-03-22T16:52:57;9.13;;;6.53;;
15110;SDS011;7656;51.954;7.998;2024-03-22T16:57:19;8.23;;;6.07;;
15110;SDS011;7656;51.954;7.998;2024-03-22T17:01:41;8.20;;;6.60;;
15110;SDS011;7656;51.954;7.998;2024-03-22T17:06:03;8.67;;;6.33;;
15110;SDS011;7656;51.954;7.998;2024-03-22T17:10:25;10.83;;;6.97;;
15110;SDS011;7656;51.954;7.998;2024-03-22T17:14:46;9.83;;;7.07;;
15110;SDS011;7656;51.954;7.998;2024-03-22T17:19:08;9.47;;;7.00;;
15110;SDS011;7656;51.954;7.998;2024-03-22T17:23:30;9.53;;;6.87;;
15110;SDS011;7656;51.954;7.998;2024-03-22T17:27:51;11.20;;;7.43;;
15110;SDS011;7656;51.954;7.998;2024-03-22T17:32:13;9.53;;;7.20;;
15110;SDS011;7656;51.954;7.998;2024-03-22T17:36:34;11.13;;;7.30;;
15110;SDS011;7656;51.954;7.998;2024-03-22T17:40:56;10.03;;;7.40;;
15110;SDS011;7656;51.954;7.998;2024-03-22T17:45:18;9.40;;;6.40;;
15110;SDS011;7656;51.954;7.998;2024-03-22T17:49:39;5.97;;;4.47;;
15110;SDS011;7656;51.954;7.998;2024-03-22T17:54:01;4.33;;;3.40;;
15110;SDS011;7656;51.954;7.998;2024-03-22T17:58:22;5.13;;;2.70;;
15110;SDS011;7656;51.954;7.998;2024-03-22T18:02:44;6.13;;;3.10;;
15110;SDS011;7656;51.954;7.998;2024-03-22T18:07:05;5.57;;;3.33;;
15110;SDS011;7656;51.954;7.998;2024-03-22T18:11:27;4.10;;;2.83;;
15110;SDS011;7656;51.954;7.998;2024-03-22T18:15:49;4.13;;;3.07;;
15110;SDS011;7656;51.954;7.998;2024-03-22T18:20:10;6.87;;;2.47;;
15110;SDS011;7656;51.954;7.998;2024-03-22T18:24:36;7.83;;;3.63;;
15110;SDS011;7656;51.954;7.998;2024-03-22T18:28:58;4.70;;;3.10;;
15110;SDS011;7656;51.954;7.998;2024-03-22T18:33:19;5.50;;;4.20;;
15110;SDS011;7656;51.954;7.998;2024-03-22T18:37:41;4.63;;;3.43;;
15110;SDS011;7656;51.954;7.998;2024-03-22T18:42:02;8.87;;;5.57;;
15110;SDS011;7656;51.954;7.998;2024-03-22T18:46:25;7.43;;;5.53;;
15110;SDS011;7656;51.954;7.998;2024-03-22T18:50:49;5.40;;;3.60;;
15110;SDS011;7656;51.954;7.998;2024-03-22T18:55:11;5.47;;;3.93;;
15110;SDS011;7656;51.954;7.998;2024-03-22T18:59:32;6.40;;;4.17;;
15110;SDS011;7656;51.954;7.998;2024-03-22T19:03:54;6.53;;;4.60;;
15110;SDS011;7656;51.954;7.998;2024-03-22T19:08:15;7.97;;;4.30;;
15110;SDS011;7656;51.954;7.998;2024-03-22T19:12:37;6.67;;;4.40;;
15110;SDS011;7656;51.954;7.998;2024-03-22T19:16:59;5.93;;;3.77;;
15110;SDS011;7656;51.954;7.998;2024-03-22T19:21:21;7.13;;;4.53;;
15110;SDS011;7656;51.954;7.998;2024-03-22T19:25:43;8.33;;;5.10;;
15110;SDS011;7656;51.954;7.998;2024-03-22T19:30:05;9.27;;;5.30;;
15110;SDS011;7656;51.954;7.998;2024-03-22T19:34:28;9.13;;;5.30;;
15110;SDS011;7656;51.954;7.998;2024-03-22T19:38:50;9.00;;;4.70;;
15110;SDS011;7656;51.954;7.998;2024-03-22T19:43:11;9.10;;;4.50;;
15110;SDS011;7656;51.954;7.998;2024-03-22T19:47:33;7.67;;;4.77;;
15110;SDS011;7656;51.954;7.998;2024-03-22T19:51:54;7.83;;;4.77;;
15110;SDS011;7656;51.954;7.998;2024-03-22T19:56:16;9.53;;;5.67;;
15110;SDS011;7656;51.954;7.998;2024-03-22T20:00:37;22.30;;;12.93;;
15110;SDS011;7656;51.954;7.998;2024-03-22T20:04:59;18.40;;;11.10;;
15110;SDS011;7656;51.954;7.998;2024-03-22T20:09:21;19.10;;;11.20;;
15110;SDS011;7656;51.954;7.998;2024-03-22T20:13:42;11.63;;;6.73;;
15110;SDS011;7656;51.954;7.998;2024-03-22T20:18:04;10.60;;;5.57;;
15110;SDS011;7656;51.954;7.998;2024-03-22T20:22:26;6.77;;;4.50;;
15110;SDS011;7656;51.954;7.998;2024-03-22T20:26:47;7.30;;;4.30;;
15110;SDS011;7656;51.954;7.998;2024-03-22T20:31:09;9.03;;;4.80;;
15110;SDS011;7656;51.954;7.998;2024-03-22T20:35:30;11.00;;;5.20;;
